sensor_id;sensor_type;location;lat;lon;timestamp;P1;durP1;ratioP1;P2;durP2;ratioP2
5379;SDS011;2713;42.680;23.310;2022-07-06T00:01:52;14.90;;;13.40;;
5379;SDS011;2713;42.680;23.310;2022-07-06T00:04:19;14.03;;;12.63;;
5379;SDS011;2713;42.680;23.310;2022-07-06T00:06:46;12.80;;;11.57;;
5379;SDS011;2713;42.680;23.310;2022-07-06T00:09:13;14.37;;;12.87;;
5379;SDS011;2713;42.680;23.310;2022-07-06T00:11:42;12.83;;;11.63;;
5379;SDS011;2713;42.680;23.310;2022-07-06T00:14:09;13.80;;;11.70;;
5379;SDS011;2713;42.680;23.310;2022-07-06T00:16:35;13.23;;;11.90;;
5379;SDS011;2713;42.680;23.310;2022-07-06T00:19:02;14.77;;;12.97;;
5379;SDS011;2713;42.680;23.310;2022-07-06T00:21:29;16.20;;;12.00;;
5379;SDS011;2713;42.680;23.310;2022-07-06T00:23:56;13.70;;;11.60;;
5379;SDS011;2713;42.680;23.310;2022-07-06T00:26:23;14.53;;;12.47;;
5379;SDS011;2713;42.680;23.310;2022-07-06T00:28:51;15.37;;;13.10;;
5379;SDS011;2713;42.680;23.310;2022-07-06T00:31:18;14.70;;;12.77;;
5379;SDS011;2713;42.680;23.310;2022-07-06T00:33:45;14.37;;;12.87;;
5379;SDS011;2713;42.680;23.310;2022-07-06T00:36:12;13.80;;;11.70;;
5379;SDS011;2713;42.680;23.310;2022-07-06T00:38:39;13.37;;;12.00;;
5379;SDS011;2713;42.680;23.310;2022-07-06T00:41:06;19.70;;;16.50;;
5379;SDS011;2713;42.680;23.310;2022-07-06T00:43:49;18.70;;;16.20;;
5379;SDS011;2713;42.680;23.310;2022-07-06T00:46:18;18.40;;;15.13;;
5379;SDS011;2713;42.680;23.310;2022-07-06T00:48:47;19.83;;;15.93;;
5379;SDS011;2713;42.680;23.310;2022-07-06T00:51:14;17.00;;;15.23;;
5379;SDS011;2713;42.680;23.310;2022-07-06T00:53:41;16.20;;;14.53;;
5379;SDS011;2713;42.680;23.310;2022-07-06T00:56:09;16.90;;;14.10;;
5379;SDS011;2713;42.680;23.310;2022-07-06T00:58:36;17.97;;;14.53;;
5379;SDS011;2713;42.680;23.310;2022-07-06T01:01:03;15.60;;;13.90;;
5379;SDS011;2713;42.680;23.310;2022-07-06T01:03:33;17.13;;;14.00;;
5379;SDS011;2713;42.680;23.310;2022-07-06T01:06:00;15.47;;;13.57;;
5379;SDS011;2713;42.680;23.310;2022-07-06T01:08:27;22.33;;;19.90;;
5379;SDS011;2713;42.680;23.310;2022-07-06T01:10:55;18.43;;;16.50;;
5379;SDS011;2713;42.680;23.310;2022-07-06T01:13:22;16.53;;;14.80;;
5379;SDS011;2713;42.680;23.310;2022-07-06T01:15:49;18.20;;;15.07;;
5379;SDS011;2713;42.680;23.310;2022-07-06T01:18:17;17.37;;;15.13;;
5379;SDS011;2713;42.680;23.310;2022-07-06T01:20:45;17.10;;;14.13;;
5379;SDS011;2713;42.680;23.310;2022-07-06T01:23:12;19.33;;;14.80;;
5379;SDS011;2713;42.680;23.310;2022-07-06T01:25:39;21.07;;;13.50;;
5379;SDS011;2713;42.680;23.310;2022-07-06T01:28:06;14.80;;;12.90;;
5379;SDS011;2713;42.680;23.310;2022-07-06T01:30:33;14.03;;;12.17;;
5379;SDS011;2713;42.680;23.310;2022-07-06T01:33:01;17.50;;;13.87;;
5379;SDS011;2713;42.680;23.310;2022-07-06T01:35:27;14.33;;;12.77;;
5379;SDS011;2713;42.680;23.310;2022-07-06T01:37:59;18.13;;;13.20;;
5379;SDS011;2713;42.680;23.310;2022-07-06T01:40:26;14.67;;;12.87;;
5379;SDS011;2713;42.680;23.310;2022-07-06T01:42:53;13.80;;;12.00;;
5379;SDS011;2713;42.680;23.310;2022-07-06T01:45:20;14.00;;;12.50;;
5379;SDS011;2713;42.680;23.310;2022-07-06T01:47:47;14.53;;;12.27;;
5379;SDS011;2713;42.680;23.310;2022-07-06T01:50:13;13.90;;;11.07;;
5379;SDS011;2713;42.680;23.310;2022-07-06T01:52:43;12.50;;;11.20;;
5379;SDS011;2713;42.680;23.310;2022-07-06T01:55:12;13.07;;;11.40;;
5379;SDS011;2713;42.680;23.310;2022-07-06T01:57:39;13.30;;;11.17;;
5379;SDS011;2713;42.680;23.310;2022-07-06T02:00:08;15.10;;;11.73;;
5379;SDS011;2713;42.680;23.310;2022-07-06T02:02:38;13.10;;;11.10;;
5379;SDS011;2713;42.680;23.310;2022-07-06T02:05:09;11.20;;;10.10;;
5379;SDS011;2713;42.680;23.310;2022-07-06T02:07:36;11.80;;;10.47;;
5379;SDS011;2713;42.680;23.310;2022-07-06T02:10:03;11.30;;;10.10;;
5379;SDS011;2713;42.680;23.310;2022-07-06T02:12:32;12.50;;;10.27;;
5379;SDS011;2713;42.680;23.310;2022-07-06T02:14:59;11.60;;;10.10;;
5379;SDS011;2713;42.680;23.310;2022-07-06T02:17:26;14.23;;;10.33;;
5379;SDS011;2713;42.680;23.310;2022-07-06T02:19:52;12.27;;;10.80;;
5379;SDS011;2713;42.680;23.310;2022-07-06T02:22:20;10.97;;;9.87;;
5379;SDS011;2713;42.680;23.310;2022-07-06T02:24:47;11.80;;;10.60;;
5379;SDS011;2713;42.680;23.310;2022-07-06T02:27:14;12.20;;;10.43;;
5379;SDS011;2713;42.680;23.310;2022-07-06T02:29:42;12.73;;;10.93;;
5379;SDS011;2713;42.680;23.310;2022-07-06T02:32:09;11.10;;;10.03;;
5379;SDS011;2713;42.680;23.310;2022-07-06T02:34:37;10.57;;;9.57;;
5379;SDS011;2713;42.680;23.310;2022-07-06T02:37:04;11.23;;;9.30;;
5379;SDS011;2713;42.680;23.310;2022-07-06T02:39:30;11.73;;;9.47;;
5379;SDS011;2713;42.680;23.310;2022-07-06T02:41:57;11.53;;;10.33;;
5379;SDS011;2713;42.680;23.310;2022-07-06T02:44:24;11.83;;;10.63;;
5379;SDS011;2713;42.680;23.310;2022-07-06T02:46:53;11.40;;;10.20;;
5379;SDS011;2713;42.680;23.310;2022-07-06T02:49:21;10.60;;;9.60;;
5379;SDS011;2713;42.680;23.310;2022-07-06T02:51:48;12.00;;;10.80;;
5379;SDS011;2713;42.680;23.310;2022-07-06T02:54:15;13.00;;;10.60;;
5379;SDS011;2713;42.680;23.310;2022-07-06T02:56:42;13.50;;;11.10;;
5379;SDS011;2713;42.680;23.310;2022-07-06T02:59:10;12.60;;;10.97;;
5379;SDS011;2713;42.680;23.310;2022-07-06T03:01:37;13.87;;;10.73;;
5379;SDS011;2713;42.680;23.310;2022-07-06T03:04:05;12.73;;;11.43;;
5379;SDS011;2713;42.680;23.310;2022-07-06T03:06:32;11.80;;;10.60;;
5379;SDS011;2713;42.680;23.310;2022-07-06T03:08:59;14.33;;;11.70;;
5379;SDS011;2713;42.680;23.310;2022-07-06T03:11:27;13.77;;;11.93;;
5379;SDS011;2713;42.680;23.310;2022-07-06T03:13:54;11.77;;;10.57;;
5379;SDS011;2713;42.680;23.310;2022-07-06T03:16:22;12.87;;;11.67;;
5379;SDS011;2713;42.680;23.310;2022-07-06T03:18:49;12.43;;;11.20;;
5379;SDS011;2713;42.680;23.310;2022-07-06T03:21:17;12.37;;;10.90;;
5379;SDS011;2713;42.680;23.310;2022-07-06T03:23:45;14.13;;;11.30;;
5379;SDS011;2713;42.680;23.310;2022-07-06T03:26:12;13.00;;;11.70;;
5379;SDS011;2713;42.680;23.310;2022-07-06T03:28:38;11.87;;;10.70;;
5379;SDS011;2713;42.680;23.310;2022-07-06T03:31:05;11.50;;;10.30;;
5379;SDS011;2713;42.680;23.310;2022-07-06T03:33:33;14.83;;;10.27;;
5379;SDS011;2713;42.680;23.310;2022-07-06T03:36:01;13.23;;;10.60;;
5379;SDS011;2713;42.680;23.310;2022-07-06T03:38:30;13.23;;;10.77;;
5379;SDS011;2713;42.680;23.310;2022-07-06T03:40:57;13.17;;;11.10;;
5379;SDS011;2713;42.680;23.310;2022-07-06T03:43:24;12.57;;;10.20;;
5379;SDS011;2713;42.680;23.310;2022-07-06T03:45:52;11.60;;;10.03;;
5379;SDS011;2713;42.680;23.310;2022-07-06T03:48:20;13.87;;;9.50;;
5379;SDS011;2713;42.680;23.310;2022-07-06T03:50:47;10.80;;;9.40;;
5379;SDS011;2713;42.680;23.310;2022-07-06T03:53:15;9.50;;;8.60;;
5379;SDS011;2713;42.680;23.310;2022-07-06T03:55:43;8.90;;;8.00;;
5379;SDS011;2713;42.680;23.310;2022-07-06T03:58:31;9.90;;;8.50;;
5379;SDS011;2713;42.680;23.310;2022-07-06T04:00:58;7.63;;;6.80;;
5379;SDS011;2713;42.680;23.310;2022-07-06T04:03:25;9.33;;;7.40;;
5379;SDS011;2713;42.680;23.310;2022-07-06T04:05:52;8.50;;;7.57;;
5379;SDS011;2713;42.680;23.310;2022-07-06T04:08:20;8.27;;;7.53;;
5379;SDS011;2713;42.680;23.310;2022-07-06T04:10:53;7.80;;;7.00;;
5379;SDS011;2713;42.680;23.310;2022-07-06T04:13:21;11.50;;;7.47;;
5379;SDS011;2713;42.680;23.310;2022-07-06T04:15:49;7.50;;;6.80;;
5379;SDS011;2713;42.680;23.310;2022-07-06T04:18:17;8.40;;;7.53;;
5379;SDS011;2713;42.680;23.310;2022-07-06T04:20:50;9.20;;;7.60;;
5379;SDS011;2713;42.680;23.310;2022-07-06T04:23:17;10.23;;;7.67;;
5379;SDS011;2713;42.680;23.310;2022-07-06T04:25:45;8.10;;;7.27;;
5379;SDS011;2713;42.680;23.310;2022-07-06T04:28:13;8.00;;;7.20;;
5379;SDS011;2713;42.680;23.310;2022-07-06T04:30:40;7.67;;;6.87;;
5379;SDS011;2713;42.680;23.310;2022-07-06T04:33:11;10.00;;;7.60;;
5379;SDS011;2713;42.680;23.310;2022-07-06T04:35:39;9.50;;;7.30;;
5379;SDS011;2713;42.680;23.310;2022-07-06T04:38:06;7.70;;;6.90;;
5379;SDS011;2713;42.680;23.310;2022-07-06T04:40:33;9.27;;;7.50;;
5379;SDS011;2713;42.680;23.310;2022-07-06T04:43:04;9.03;;;7.57;;
5379;SDS011;2713;42.680;23.310;2022-07-06T04:45:35;11.80;;;7.83;;
5379;SDS011;2713;42.680;23.310;2022-07-06T04:48:03;8.63;;;7.40;;
5379;SDS011;2713;42.680;23.310;2022-07-06T04:50:30;11.27;;;8.00;;
5379;SDS011;2713;42.680;23.310;2022-07-06T04:53:00;10.60;;;8.70;;
5379;SDS011;2713;42.680;23.310;2022-07-06T04:55:29;10.00;;;9.00;;
5379;SDS011;2713;42.680;23.310;2022-07-06T04:57:57;12.17;;;10.47;;
5379;SDS011;2713;42.680;23.310;2022-07-06T05:00:24;13.70;;;9.63;;
5379;SDS011;2713;42.680;23.310;2022-07-06T05:02:53;11.37;;;9.83;;
5379;SDS011;2713;42.680;23.310;2022-07-06T05:05:24;14.63;;;10.70;;
5379;SDS011;2713;42.680;23.310;2022-07-06T05:07:51;18.10;;;12.50;;
5379;SDS011;2713;42.680;23.310;2022-07-06T05:10:19;13.90;;;10.93;;
5379;SDS011;2713;42.680;23.310;2022-07-06T05:12:50;18.30;;;12.70;;
5379;SDS011;2713;42.680;23.310;2022-07-06T05:15:16;17.10;;;11.83;;
5379;SDS011;2713;42.680;23.310;2022-07-06T05:17:44;14.83;;;11.43;;
5379;SDS011;2713;42.680;23.310;2022-07-06T05:20:13;15.93;;;12.03;;
5379;SDS011;2713;42.680;23.310;2022-07-06T05:22:43;14.67;;;13.07;;
5379;SDS011;2713;42.680;23.310;2022-07-06T05:25:10;19.30;;;12.20;;
5379;SDS011;2713;42.680;23.310;2022-07-06T05:27:37;14.83;;;10.60;;
5379;SDS011;2713;42.680;23.310;2022-07-06T05:30:05;13.00;;;10.80;;
5379;SDS011;2713;42.680;23.310;2022-07-06T05:32:32;16.27;;;11.63;;
5379;SDS011;2713;42.680;23.310;2022-07-06T05:34:59;14.90;;;10.80;;
5379;SDS011;2713;42.680;23.310;2022-07-06T05:37:27;14.10;;;11.50;;
5379;SDS011;2713;42.680;23.310;2022-07-06T05:39:54;12.23;;;10.80;;
5379;SDS011;2713;42.680;23.310;2022-07-06T05:42:21;12.63;;;10.70;;
5379;SDS011;2713;42.680;23.310;2022-07-06T05:44:48;13.17;;;11.67;;
5379;SDS011;2713;42.680;23.310;2022-07-06T05:47:17;11.90;;;10.27;;
5379;SDS011;2713;42.680;23.310;2022-07-06T05:50:01;10.80;;;9.70;;
5379;SDS011;2713;42.680;23.310;2022-07-06T05:52:56;12.50;;;10.20;;
5379;SDS011;2713;42.680;23.310;2022-07-06T05:55:25;16.80;;;12.70;;
5379;SDS011;2713;42.680;23.310;2022-07-06T05:57:54;14.43;;;10.87;;
5379;SDS011;2713;42.680;23.310;2022-07-06T06:00:24;11.40;;;9.93;;
5379;SDS011;2713;42.680;23.310;2022-07-06T06:02:55;19.33;;;11.17;;
5379;SDS011;2713;42.680;23.310;2022-07-06T06:05:22;12.53;;;9.53;;
5379;SDS011;2713;42.680;23.310;2022-07-06T06:07:52;12.80;;;10.30;;
5379;SDS011;2713;42.680;23.310;2022-07-06T06:10:23;10.27;;;9.27;;
5379;SDS011;2713;42.680;23.310;2022-07-06T06:12:53;13.50;;;9.40;;
5379;SDS011;2713;42.680;23.310;2022-07-06T06:15:20;12.23;;;9.80;;
5379;SDS011;2713;42.680;23.310;2022-07-06T06:17:47;12.90;;;9.90;;
5379;SDS011;2713;42.680;23.310;2022-07-06T06:20:14;12.47;;;9.83;;
5379;SDS011;2713;42.680;23.310;2022-07-06T06:22:45;14.53;;;10.30;;
5379;SDS011;2713;42.680;23.310;2022-07-06T06:25:13;15.10;;;11.00;;
5379;SDS011;2713;42.680;23.310;2022-07-06T06:27:41;13.10;;;10.30;;
5379;SDS011;2713;42.680;23.310;2022-07-06T06:30:09;11.67;;;10.47;;
5379;SDS011;2713;42.680;23.310;2022-07-06T06:32:37;12.10;;;10.80;;
5379;SDS011;2713;42.680;23.310;2022-07-06T06:35:04;15.23;;;11.43;;
5379;SDS011;2713;42.680;23.310;2022-07-06T06:37:32;11.70;;;10.50;;
5379;SDS011;2713;42.680;23.310;2022-07-06T06:39:59;15.10;;;11.50;;
5379;SDS011;2713;42.680;23.310;2022-07-06T06:42:26;12.07;;;10.43;;
5379;SDS011;2713;42.680;23.310;2022-07-06T06:44:54;11.47;;;10.17;;
5379;SDS011;2713;42.680;23.310;2022-07-06T06:47:21;17.30;;;11.87;;
5379;SDS011;2713;42.680;23.310;2022-07-06T06:49:48;13.93;;;11.53;;
5379;SDS011;2713;42.680;23.310;2022-07-06T06:52:15;13.77;;;12.20;;
5379;SDS011;2713;42.680;23.310;2022-07-06T06:54:42;13.23;;;11.70;;
5379;SDS011;2713;42.680;23.310;2022-07-06T06:57:09;12.97;;;11.77;;
5379;SDS011;2713;42.680;23.310;2022-07-06T06:59:35;16.37;;;11.87;;
5379;SDS011;2713;42.680;23.310;2022-07-06T07:02:04;12.90;;;11.33;;
5379;SDS011;2713;42.680;23.310;2022-07-06T07:04:31;14.77;;;11.40;;
5379;SDS011;2713;42.680;23.310;2022-07-06T07:06:58;13.70;;;12.27;;
5379;SDS011;2713;42.680;23.310;2022-07-06T07:09:24;14.17;;;12.23;;
5379;SDS011;2713;42.680;23.310;2022-07-06T07:11:51;14.00;;;11.67;;
5379;SDS011;2713;42.680;23.310;2022-07-06T07:14:18;16.00;;;11.80;;
5379;SDS011;2713;42.680;23.310;2022-07-06T07:16:45;15.20;;;12.07;;
5379;SDS011;2713;42.680;23.310;2022-07-06T07:19:13;13.47;;;12.00;;
5379;SDS011;2713;42.680;23.310;2022-07-06T07:21:40;14.90;;;13.00;;
5379;SDS011;2713;42.680;23.310;2022-07-06T07:24:07;14.07;;;12.20;;
5379;SDS011;2713;42.680;23.310;2022-07-06T07:26:35;14.97;;;12.90;;
5379;SDS011;2713;42.680;23.310;2022-07-06T07:29:02;15.30;;;12.93;;
5379;SDS011;2713;42.680;23.310;2022-07-06T07:31:29;14.57;;;12.83;;
5379;SDS011;2713;42.680;23.310;2022-07-06T07:33:56;16.03;;;13.03;;
5379;SDS011;2713;42.680;23.310;2022-07-06T07:36:25;15.37;;;12.90;;
5379;SDS011;2713;42.680;23.310;2022-07-06T07:38:52;14.10;;;12.60;;
5379;SDS011;2713;42.680;23.310;2022-07-06T07:41:19;13.20;;;11.90;;
5379;SDS011;2713;42.680;23.310;2022-07-06T07:43:46;15.00;;;13.33;;
5379;SDS011;2713;42.680;23.310;2022-07-06T07:46:13;15.73;;;12.93;;
5379;SDS011;2713;42.680;23.310;2022-07-06T07:48:41;14.03;;;12.63;;
5379;SDS011;2713;42.680;23.310;2022-07-06T07:51:08;17.30;;;13.90;;
5379;SDS011;2713;42.680;23.310;2022-07-06T07:53:36;13.97;;;12.20;;
5379;SDS011;2713;42.680;23.310;2022-07-06T07:56:03;12.50;;;11.30;;
5379;SDS011;2713;42.680;23.310;2022-07-06T07:58:31;13.23;;;11.60;;
5379;SDS011;2713;42.680;23.310;2022-07-06T08:00:57;14.40;;;12.93;;
5379;SDS011;2713;42.680;23.310;2022-07-06T08:03:24;14.23;;;12.20;;
5379;SDS011;2713;42.680;23.310;2022-07-06T08:05:51;12.90;;;11.60;;
5379;SDS011;2713;42.680;23.310;2022-07-06T08:08:19;13.33;;;12.00;;
5379;SDS011;2713;42.680;23.310;2022-07-06T08:10:48;14.03;;;12.63;;
5379;SDS011;2713;42.680;23.310;2022-07-06T08:13:15;13.07;;;11.83;;
5379;SDS011;2713;42.680;23.310;2022-07-06T08:15:42;12.67;;;11.47;;
5379;SDS011;2713;42.680;23.310;2022-07-06T08:18:09;13.77;;;12.43;;
5379;SDS011;2713;42.680;23.310;2022-07-06T08:20:36;13.03;;;11.80;;
5379;SDS011;2713;42.680;23.310;2022-07-06T08:23:03;13.80;;;12.30;;
5379;SDS011;2713;42.680;23.310;2022-07-06T08:25:30;15.90;;;12.60;;
5379;SDS011;2713;42.680;23.310;2022-07-06T08:27:59;13.47;;;11.50;;
5379;SDS011;2713;42.680;23.310;2022-07-06T08:30:26;13.40;;;12.07;;
5379;SDS011;2713;42.680;23.310;2022-07-06T08:32:53;13.57;;;12.13;;
5379;SDS011;2713;42.680;23.310;2022-07-06T08:35:20;14.37;;;12.70;;
5379;SDS011;2713;42.680;23.310;2022-07-06T08:37:46;14.47;;;12.97;;
5379;SDS011;2713;42.680;23.310;2022-07-06T08:40:13;14.03;;;12.63;;
5379;SDS011;2713;42.680;23.310;2022-07-06T08:42:40;13.93;;;12.53;;
5379;SDS011;2713;42.680;23.310;2022-07-06T08:45:17;14.93;;;13.37;;
5379;SDS011;2713;42.680;23.310;2022-07-06T08:47:45;15.93;;;14.43;;
5379;SDS011;2713;42.680;23.310;2022-07-06T08:50:14;13.30;;;12.00;;
5379;SDS011;2713;42.680;23.310;2022-07-06T08:52:42;14.10;;;12.73;;
5379;SDS011;2713;42.680;23.310;2022-07-06T08:55:09;14.37;;;12.50;;
5379;SDS011;2713;42.680;23.310;2022-07-06T08:57:36;13.87;;;12.47;;
5379;SDS011;2713;42.680;23.310;2022-07-06T09:00:05;14.47;;;12.97;;
5379;SDS011;2713;42.680;23.310;2022-07-06T09:02:34;14.63;;;12.13;;
5379;SDS011;2713;42.680;23.310;2022-07-06T09:05:02;13.70;;;12.07;;
5379;SDS011;2713;42.680;23.310;2022-07-06T09:07:29;14.30;;;12.40;;
5379;SDS011;2713;42.680;23.310;2022-07-06T09:09:56;14.57;;;13.10;;
5379;SDS011;2713;42.680;23.310;2022-07-06T09:12:26;18.10;;;12.73;;
5379;SDS011;2713;42.680;23.310;2022-07-06T09:14:54;16.33;;;12.87;;
5379;SDS011;2713;42.680;23.310;2022-07-06T09:17:21;14.60;;;12.83;;
5379;SDS011;2713;42.680;23.310;2022-07-06T09:19:53;13.57;;;11.83;;
5379;SDS011;2713;42.680;23.310;2022-07-06T09:22:24;15.00;;;12.40;;
5379;SDS011;2713;42.680;23.310;2022-07-06T09:24:53;14.37;;;12.87;;
5379;SDS011;2713;42.680;23.310;2022-07-06T09:27:27;16.23;;;14.57;;
5379;SDS011;2713;42.680;23.310;2022-07-06T09:29:54;13.73;;;12.07;;
5379;SDS011;2713;42.680;23.310;2022-07-06T09:32:20;14.33;;;12.83;;
5379;SDS011;2713;42.680;23.310;2022-07-06T09:34:47;19.33;;;13.50;;
5379;SDS011;2713;42.680;23.310;2022-07-06T09:37:16;15.47;;;13.60;;
5379;SDS011;2713;42.680;23.310;2022-07-06T09:39:43;14.17;;;12.23;;
5379;SDS011;2713;42.680;23.310;2022-07-06T09:42:10;15.00;;;13.43;;
5379;SDS011;2713;42.680;23.310;2022-07-06T09:44:38;16.10;;;14.47;;
5379;SDS011;2713;42.680;23.310;2022-07-06T09:47:06;16.67;;;14.90;;
5379;SDS011;2713;42.680;23.310;2022-07-06T09:49:35;16.93;;;15.10;;
5379;SDS011;2713;42.680;23.310;2022-07-06T09:52:02;17.47;;;15.70;;
5379;SDS011;2713;42.680;23.310;2022-07-06T09:54:32;15.37;;;13.77;;
5379;SDS011;2713;42.680;23.310;2022-07-06T09:56:59;18.47;;;16.50;;
5379;SDS011;2713;42.680;23.310;2022-07-06T09:59:28;17.23;;;14.57;;
5379;SDS011;2713;42.680;23.310;2022-07-06T10:01:57;16.47;;;14.77;;
5379;SDS011;2713;42.680;23.310;2022-07-06T10:04:26;16.53;;;14.73;;
5379;SDS011;2713;42.680;23.310;2022-07-06T10:06:53;16.33;;;14.33;;
5379;SDS011;2713;42.680;23.310;2022-07-06T10:09:21;19.53;;;14.70;;
5379;SDS011;2713;42.680;23.310;2022-07-06T10:11:52;15.23;;;13.63;;
5379;SDS011;2713;42.680;23.310;2022-07-06T10:14:22;17.73;;;15.60;;
5379;SDS011;2713;42.680;23.310;2022-07-06T10:16:50;15.30;;;12.93;;
5379;SDS011;2713;42.680;23.310;2022-07-06T10:19:18;15.73;;;14.07;;
5379;SDS011;2713;42.680;23.310;2022-07-06T10:21:46;16.30;;;14.43;;
5379;SDS011;2713;42.680;23.310;2022-07-06T10:24:13;17.77;;;15.00;;
5379;SDS011;2713;42.680;23.310;2022-07-06T10:26:41;21.17;;;17.50;;
5379;SDS011;2713;42.680;23.310;2022-07-06T10:29:09;17.50;;;15.33;;
5379;SDS011;2713;42.680;23.310;2022-07-06T10:31:38;18.70;;;16.20;;
5379;SDS011;2713;42.680;23.310;2022-07-06T10:34:10;19.70;;;15.53;;
5379;SDS011;2713;42.680;23.310;2022-07-06T10:36:38;23.70;;;20.53;;
5379;SDS011;2713;42.680;23.310;2022-07-06T10:39:06;17.80;;;15.90;;
5379;SDS011;2713;42.680;23.310;2022-07-06T10:41:47;17.10;;;15.13;;
5379;SDS011;2713;42.680;23.310;2022-07-06T10:44:16;19.43;;;14.90;;
5379;SDS011;2713;42.680;23.310;2022-07-06T10:46:53;16.40;;;14.60;;
5379;SDS011;2713;42.680;23.310;2022-07-06T10:49:21;15.47;;;13.80;;
5379;SDS011;2713;42.680;23.310;2022-07-06T10:51:49;17.37;;;14.43;;
5379;SDS011;2713;42.680;23.310;2022-07-06T10:54:16;18.03;;;14.70;;
5379;SDS011;2713;42.680;23.310;2022-07-06T10:56:45;16.43;;;14.73;;
5379;SDS011;2713;42.680;23.310;2022-07-06T10:59:13;16.80;;;14.50;;
5379;SDS011;2713;42.680;23.310;2022-07-06T11:02:11;17.00;;;15.20;;
5379;SDS011;2713;42.680;23.310;2022-07-06T11:04:39;16.63;;;14.90;;
5379;SDS011;2713;42.680;23.310;2022-07-06T11:07:09;16.87;;;15.07;;
5379;SDS011;2713;42.680;23.310;2022-07-06T11:09:37;18.80;;;15.60;;
5379;SDS011;2713;42.680;23.310;2022-07-06T11:12:16;18.43;;;16.20;;
5379;SDS011;2713;42.680;23.310;2022-07-06T11:14:44;19.10;;;15.77;;
5379;SDS011;2713;42.680;23.310;2022-07-06T11:17:13;17.40;;;14.93;;
5379;SDS011;2713;42.680;23.310;2022-07-06T11:19:47;18.63;;;15.53;;
5379;SDS011;2713;42.680;23.310;2022-07-06T11:22:15;17.80;;;15.67;;
5379;SDS011;2713;42.680;23.310;2022-07-06T11:24:44;17.47;;;15.67;;
5379;SDS011;2713;42.680;23.310;2022-07-06T11:27:11;16.80;;;15.00;;
5379;SDS011;2713;42.680;23.310;2022-07-06T11:29:39;17.07;;;15.37;;
5379;SDS011;2713;42.680;23.310;2022-07-06T11:32:06;17.60;;;15.80;;
5379;SDS011;2713;42.680;23.310;2022-07-06T11:34:38;18.70;;;16.60;;
5379;SDS011;2713;42.680;23.310;2022-07-06T11:37:07;17.67;;;15.20;;
5379;SDS011;2713;42.680;23.310;2022-07-06T11:39:35;18.57;;;16.57;;
5379;SDS011;2713;42.680;23.310;2022-07-06T11:42:05;18.17;;;15.57;;
5379;SDS011;2713;42.680;23.310;2022-07-06T11:44:32;15.93;;;14.33;;
5379;SDS011;2713;42.680;23.310;2022-07-06T11:47:00;16.67;;;14.93;;
5379;SDS011;2713;42.680;23.310;2022-07-06T11:49:29;17.80;;;16.10;;
5379;SDS011;2713;42.680;23.310;2022-07-06T11:51:57;17.93;;;16.17;;
5379;SDS011;2713;42.680;23.310;2022-07-06T11:54:25;18.77;;;16.60;;
5379;SDS011;2713;42.680;23.310;2022-07-06T11:56:53;17.50;;;15.70;;
5379;SDS011;2713;42.680;23.310;2022-07-06T11:59:22;16.57;;;14.60;;
5379;SDS011;2713;42.680;23.310;2022-07-06T12:01:56;18.37;;;16.23;;
5379;SDS011;2713;42.680;23.310;2022-07-06T12:04:24;20.70;;;18.50;;
5379;SDS011;2713;42.680;23.310;2022-07-06T12:06:51;17.13;;;15.00;;
5379;SDS011;2713;42.680;23.310;2022-07-06T12:09:20;16.07;;;14.47;;
5379;SDS011;2713;42.680;23.310;2022-07-06T12:11:47;16.77;;;15.03;;
5379;SDS011;2713;42.680;23.310;2022-07-06T12:14:15;16.50;;;14.70;;
5379;SDS011;2713;42.680;23.310;2022-07-06T12:16:44;15.80;;;14.20;;
5379;SDS011;2713;42.680;23.310;2022-07-06T12:19:12;16.97;;;15.00;;
5379;SDS011;2713;42.680;23.310;2022-07-06T12:21:42;15.43;;;13.77;;
5379;SDS011;2713;42.680;23.310;2022-07-06T12:24:16;15.60;;;13.87;;
5379;SDS011;2713;42.680;23.310;2022-07-06T12:26:45;15.53;;;14.10;;
5379;SDS011;2713;42.680;23.310;2022-07-06T12:29:12;17.63;;;14.20;;
5379;SDS011;2713;42.680;23.310;2022-07-06T12:31:40;15.23;;;13.73;;
5379;SDS011;2713;42.680;23.310;2022-07-06T12:34:12;15.70;;;14.10;;
5379;SDS011;2713;42.680;23.310;2022-07-06T12:36:42;15.33;;;13.80;;
5379;SDS011;2713;42.680;23.310;2022-07-06T12:39:10;15.30;;;13.77;;
5379;SDS011;2713;42.680;23.310;2022-07-06T12:41:43;14.93;;;13.47;;
5379;SDS011;2713;42.680;23.310;2022-07-06T12:44:13;15.00;;;13.50;;
5379;SDS011;2713;42.680;23.310;2022-07-06T12:46:43;13.80;;;12.40;;
5379;SDS011;2713;42.680;23.310;2022-07-06T12:49:11;17.07;;;13.27;;
5379;SDS011;2713;42.680;23.310;2022-07-06T12:51:52;15.07;;;13.63;;
5379;SDS011;2713;42.680;23.310;2022-07-06T12:54:25;13.57;;;12.27;;
5379;SDS011;2713;42.680;23.310;2022-07-06T12:59:41;17.03;;;11.27;;
5379;SDS011;2713;42.680;23.310;2022-07-06T13:02:18;12.03;;;10.93;;
5379;SDS011;2713;42.680;23.310;2022-07-06T13:04:57;11.80;;;10.80;;
5379;SDS011;2713;42.680;23.310;2022-07-06T13:07:25;11.10;;;10.20;;
5379;SDS011;2713;42.680;23.310;2022-07-06T13:09:53;12.50;;;11.20;;
5379;SDS011;2713;42.680;23.310;2022-07-06T13:12:20;10.37;;;9.33;;
5379;SDS011;2713;42.680;23.310;2022-07-06T13:14:49;12.47;;;9.93;;
5379;SDS011;2713;42.680;23.310;2022-07-06T13:17:17;10.23;;;9.23;;
5379;SDS011;2713;42.680;23.310;2022-07-06T13:19:44;10.23;;;9.20;;
5379;SDS011;2713;42.680;23.310;2022-07-06T13:22:11;8.83;;;8.13;;
5379;SDS011;2713;42.680;23.310;2022-07-06T13:24:38;10.93;;;9.87;;
5379;SDS011;2713;42.680;23.310;2022-07-06T13:27:05;8.87;;;7.97;;
5379;SDS011;2713;42.680;23.310;2022-07-06T13:29:33;8.67;;;7.77;;
5379;SDS011;2713;42.680;23.310;2022-07-06T13:32:02;8.93;;;6.90;;
5379;SDS011;2713;42.680;23.310;2022-07-06T13:34:30;7.57;;;6.83;;
5379;SDS011;2713;42.680;23.310;2022-07-06T13:36:57;8.13;;;7.20;;
5379;SDS011;2713;42.680;23.310;2022-07-06T13:39:24;7.57;;;6.87;;
5379;SDS011;2713;42.680;23.310;2022-07-06T13:41:52;7.67;;;7.10;;
5379;SDS011;2713;42.680;23.310;2022-07-06T13:44:20;6.43;;;6.03;;
5379;SDS011;2713;42.680;23.310;2022-07-06T13:46:47;6.77;;;6.23;;
5379;SDS011;2713;42.680;23.310;2022-07-06T13:49:15;7.00;;;6.30;;
5379;SDS011;2713;42.680;23.310;2022-07-06T13:51:42;6.87;;;6.20;;
5379;SDS011;2713;42.680;23.310;2022-07-06T13:54:09;7.67;;;6.97;;
5379;SDS011;2713;42.680;23.310;2022-07-06T13:56:37;6.73;;;6.23;;
5379;SDS011;2713;42.680;23.310;2022-07-06T13:59:04;7.10;;;6.60;;
5379;SDS011;2713;42.680;23.310;2022-07-06T14:01:31;6.20;;;5.70;;
5379;SDS011;2713;42.680;23.310;2022-07-06T14:03:58;6.43;;;5.83;;
5379;SDS011;2713;42.680;23.310;2022-07-06T14:06:26;6.10;;;5.60;;
5379;SDS011;2713;42.680;23.310;2022-07-06T14:08:53;6.40;;;5.90;;
5379;SDS011;2713;42.680;23.310;2022-07-06T14:11:20;6.20;;;5.60;;
5379;SDS011;2713;42.680;23.310;2022-07-06T14:13:47;5.70;;;5.20;;
5379;SDS011;2713;42.680;23.310;2022-07-06T14:16:14;5.10;;;4.80;;
5379;SDS011;2713;42.680;23.310;2022-07-06T14:18:41;5.83;;;5.10;;
5379;SDS011;2713;42.680;23.310;2022-07-06T14:21:09;5.60;;;5.20;;
5379;SDS011;2713;42.680;23.310;2022-07-06T14:23:37;6.70;;;5.80;;
5379;SDS011;2713;42.680;23.310;2022-07-06T14:26:04;6.20;;;5.80;;
5379;SDS011;2713;42.680;23.310;2022-07-06T14:28:31;6.23;;;5.67;;
5379;SDS011;2713;42.680;23.310;2022-07-06T14:30:58;5.60;;;5.20;;
5379;SDS011;2713;42.680;23.310;2022-07-06T14:33:26;6.10;;;5.60;;
5379;SDS011;2713;42.680;23.310;2022-07-06T14:35:53;5.63;;;5.23;;
5379;SDS011;2713;42.680;23.310;2022-07-06T14:38:20;5.77;;;5.07;;
5379;SDS011;2713;42.680;23.310;2022-07-06T14:40:49;6.47;;;5.87;;
5379;SDS011;2713;42.680;23.310;2022-07-06T14:43:16;6.17;;;5.57;;
5379;SDS011;2713;42.680;23.310;2022-07-06T14:45:43;5.20;;;4.90;;
5379;SDS011;2713;42.680;23.310;2022-07-06T14:48:11;5.97;;;5.37;;
5379;SDS011;2713;42.680;23.310;2022-07-06T14:50:38;5.17;;;4.87;;